Time;durP1;ratioP1;P1;durP2;ratioP2;P2;SDS_P1;SDS_P2;PMS_P1;PMS_P2;Temp;Humidity;BMP_temperature;BMP_pressure;BME280_temperature;BME280_humidity;BME280_pressure;Samples;Min_cycle;Max_cycle;Signal;HPM_P1;HPM_P2
2023/08/13 00:01:01;;;;;;;;;;;;;;;;;;6058539;23;91947;-91
2023/08/13 00:03:35;;;;;;;;;;;;;;;;;;6142613;22;91255;-91
2023/08/13 00:06:08;;;;;;;;;;;;;;;;;;6181182;22;91652;-91
2023/08/13 00:08:34;;;;;;;;;;;;;;;;;;6174777;22;94698;-91
2023/08/13 00:11:08;;;;;;;;;;;;;;;;;;6214139;22;91575;-92
2023/08/13 00:13:34;;;;;;;;;;;;;;;;;;6155116;22;95393;-91
2023/08/13 00:16:03;;;;;;;;;;;;;;;;;;6134740;22;94359;-91
2023/08/13 00:18:32;;;;;;;;;;;;;;;;;;6119933;23;92137;-91
2023/08/13 00:21:05;;;;;;;;;;;;;;;;;;6096912;22;94244;-92
2023/08/13 00:23:34;;;;;;;;;;;;;;;;;;6188536;22;91547;-92
2023/08/13 00:26:07;;;;;;;;;;;;;;;;;;6175865;22;94449;-92
2023/08/13 00:28:34;;;;;;;;;;;;;;;;;;6147720;22;118894;-92
2023/08/13 00:31:28;;;;;;;;;;;;;;;;;;6147927;23;92027;-92
2023/08/13 00:33:59;;;;;;;;;;;;;;;;;;6125096;23;94532;-92
2023/08/13 00:36:26;;;;;;;;;;;;;;;;;;6119029;22;91477;-91
2023/08/13 00:38:52;;;;;;;;;;;;;;;;;;6093577;23;93321;-92
2023/08/13 00:41:56;;;;;;;;;;;;;;;;;;6086274;23;92003;-91
2023/08/13 00:44:49;;;;;;;;;;;;;;;;;;6101970;23;91789;-92
2023/08/13 00:47:16;;;;;;;;;;;;;;;;;;6109702;23;91486;-92
2023/08/13 00:50:03;;;;;;;;;;;;;;;;;;6153399;22;91336;-92
2023/08/13 00:52:30;;;;;;;;;;;;;;;;;;6115573;23;91545;-92
2023/08/13 00:54:56;;;;;;;;;;;;;;;;;;6147371;23;93692;-91
2023/08/13 00:57:23;;;;;;;;;;;;;;;;;;6141991;23;91497;-92
2023/08/13 00:59:58;;;;;;;;;;;;;;;;;;6095855;22;94119;-92
2023/08/13 01:02:35;;;;;;;;;;;;;;;;;;6065470;23;94441;-92
2023/08/13 01:05:05;;;;;;;;;;;;;;;;;;6205730;22;91638;-92
2023/08/13 01:07:38;;;;;;;;;;;;;;;;;;6122494;22;94544;-92
2023/08/13 01:10:06;;;;;;;;;;;;;;;;;;6141561;22;93770;-92
2023/08/13 01:12:37;;;;;;;;;;;;;;;;;;6124039;22;91562;-92
2023/08/13 01:15:05;;;;;;;;;;;;;;;;;;6159317;22;91565;-92
2023/08/13 01:17:31;;;;;;;;;;;;;;;;;;6222213;22;94297;-92
2023/08/13 01:20:05;;;;;;;;;;;;;;;;;;6148841;22;91565;-92
2023/08/13 01:22:31;;;;;;;;;;;;;;;;;;6149954;22;94392;-92
2023/08/13 01:24:58;;;;;;;;;;;;;;;;;;6174250;22;91364;-91
2023/08/13 01:27:31;;;;;;;;;;;;;;;;;;6206223;22;91606;-92
2023/08/13 01:29:59;;;;;;;;;;;;;;;;;;6207919;22;91914;-92
2023/08/13 01:32:26;;;;;;;;;;;;;;;;;;6208892;22;91408;-92
2023/08/13 01:34:57;;;;;;;;;;;;;;;;;;6179152;22;91286;-91
2023/08/13 01:37:24;;;;;;;;;;;;;;;;;;6150204;22;104771;-92
2023/08/13 01:39:53;;;;;;;;;;;;;;;;;;6177083;22;91543;-91
2023/08/13 01:42:21;;;;;;;;;;;;;;;;;;6154933;22;92161;-92
2023/08/13 01:44:48;;;;;;;;;;;;;;;;;;6162687;22;91402;-91
2023/08/13 01:47:15;;;;;;;;;;;;;;;;;;6163318;22;91201;-92
2023/08/13 01:50:10;;;;;;;;;;;;;;;;;;6124271;23;91461;-91
2023/08/13 01:52:37;;;;;;;;;;;;;;;;;;6160145;22;93073;-91
2023/08/13 01:55:05;;;;;;;;;;;;;;;;;;6153608;22;91736;-92
2023/08/13 01:57:35;;;;;;;;;;;;;;;;;;6177686;22;91956;-92
2023/08/13 02:00:01;;;;;;;;;;;;;;;;;;6152867;22;91307;-92
2023/08/13 02:02:30;;;;;;;;;;;;;;;;;;6236155;22;91280;-92
2023/08/13 02:05:05;;;;;;;;;;;;;;;;;;6120803;23;91414;-92
2023/08/13 02:07:31;;;;;;;;;;;;;;;;;;6117104;23;91779;-92
2023/08/13 02:09:59;;;;;;;;;;;;;;;;;;6118475;23;94014;-91
2023/08/13 02:12:30;;;;;;;;;;;;;;;;;;6143963;23;91454;-92
2023/08/13 02:14:59;;;;;;;;;;;;;;;;;;6187484;22;91844;-92
2023/08/13 02:17:57;;;;;;;;;;;;;;;;;;6153064;22;91352;-93
2023/08/13 02:20:43;;;;;;;;;;;;;;;;;;6180982;22;91085;-92
2023/08/13 02:23:22;;;;;;;;;;;;;;;;;;6209093;22;94608;-93
2023/08/13 02:26:01;;;;;;;;;;;;;;;;;;6198990;22;91341;-92
2023/08/13 02:28:48;;;;;;;;;;;;;;;;;;6214795;22;91261;-92
2023/08/13 02:31:32;;;;;;;;;;;;;;;;;;6240061;22;91546;-92
2023/08/13 02:34:10;;;;;;;;;;;;;;;;;;6186759;22;91338;-93
2023/08/13 02:37:04;;;;;;;;;;;;;;;;;;6250629;22;92102;-93
2023/08/13 02:39:37;;;;;;;;;;;;;;;;;;6201427;22;95394;-93
2023/08/13 02:42:06;;;;;;;;;;;;;;;;;;5957672;22;4239298;-91
2023/08/13 02:44:34;;;;;;;;;;;;;;;;;;6121279;22;94727;-92
2023/08/13 02:50:20;;;;;;;;;;;;;;;;;;6111981;22;94881;-91
2023/08/13 02:52:53;;;;;;;;;;;;;;;;;;6179542;22;94851;-91
2023/08/13 02:55:49;;;;;;;;;;;;;;;;;;6143253;22;91021;-92
2023/08/13 02:58:29;;;;;;;;;;;;;;;;;;6120741;23;93328;-92
2023/08/13 03:00:59;;;;;;;;;;;;;;;;;;6155364;22;91520;-91
2023/08/13 03:03:52;;;;;;;;;;;;;;;;;;6200193;22;94521;-92
2023/08/13 03:06:38;;;;;;;;;;;;;;;;;;6212955;22;92187;-94
2023/08/13 03:09:15;;;;;;;;;;;;;;;;;;6199755;22;91680;-92
2023/08/13 03:14:54;;;;;;;;;;;;;;;;;;6188434;22;95176;-90
2023/08/13 03:17:32;;;;;;;;;;;;;;;;;;6242972;22;91226;-92
2023/08/13 03:20:10;;;;;;;;;;;;;;;;;;6192290;22;91609;-91
2023/08/13 03:23:04;;;;;;;;;;;;;;;;;;6157096;22;91657;-92
2023/08/13 03:25:52;;;;;;;;;;;;;;;;;;6172015;22;95133;-92
2023/08/13 03:31:30;;;;;;;;;;;;;;;;;;6125625;23;91404;-92
2023/08/13 03:34:02;;;;;;;;;;;;;;;;;;6146901;22;91293;-93
2023/08/13 03:42:02;;;;;;;;;;;;;;;;;;6155080;22;91290;-93
2023/08/13 03:44:43;;;;;;;;;;;;;;;;;;6171455;22;94430;-92
2023/08/13 03:47:38;;;;;;;;;;;;;;;;;;6198750;22;94865;-92
2023/08/13 03:56:38;;;;;;;;;;;;;;;;;;5214185;22;92676;-93
2023/08/13 03:59:24;;;;;;;;;;;;;;;;;;5247417;22;94142;-92
2023/08/13 04:05:02;;;;;;;;;;;;;;;;;;5078972;27;92459;-93
2023/08/13 04:13:33;;;;;;;;;;;;;;;;;;5005715;28;92747;-92
2023/08/13 04:22:16;;;;;;;;;;;;;;;;;;4995495;28;91651;-93
2023/08/13 04:24:50;;;;;;;;;;;;;;;;;;5048313;27;94728;-93
2023/08/13 04:27:27;;;;;;;;;;;;;;;;;;5013240;28;91428;-92
2023/08/13 04:29:54;;;;;;;;;;;;;;;;;;5017698;28;94216;-92
2023/08/13 04:32:50;;;;;;;;;;;;;;;;;;4994707;28;91530;-91
2023/08/13 04:35:29;;;;;;;;;;;;;;;;;;5054147;28;93284;-93
2023/08/13 04:38:06;;;;;;;;;;;;;;;;;;5035648;28;91616;-92
2023/08/13 04:40:41;;;;;;;;;;;;;;;;;;5126450;22;94457;-92
2023/08/13 04:43:35;;;;;;;;;;;;;;;;;;4961032;28;91962;-91
2023/08/13 04:46:12;;;;;;;;;;;;;;;;;;4968011;28;94296;-91
2023/08/13 04:48:43;;;;;;;;;;;;;;;;;;4938942;28;91870;-92
2023/08/13 04:51:22;;;;;;;;;;;;;;;;;;4986541;28;93704;-92
2023/08/13 04:54:08;;;;;;;;;;;;;;;;;;5027314;22;93166;-92
2023/08/13 04:56:41;;;;;;;;;;;;;;;;;;4955323;28;92628;-92
2023/08/13 04:59:09;;;;;;;;;;;;;;;;;;4931533;28;94154;-92
2023/08/13 05:01:36;;;;;;;;;;;;;;;;;;4928273;28;92408;-92
2023/08/13 05:04:09;;;;;;;;;;;;;;;;;;4994871;28;91941;-92
2023/08/13 05:09:48;;;;;;;;;;;;;;;;;;5189028;23;94891;-91
2023/08/13 05:12:47;;;;;;;;;;;;;;;;;;5165207;22;92663;-91
2023/08/13 05:15:18;;;;;;;;;;;;;;;;;;5028521;28;91992;-91
2023/08/13 05:21:03;;;;;;;;;;;;;;;;;;5108421;22;94831;-92
2023/08/13 05:26:46;;;;;;;;;;;;;;;;;;5649469;22;94733;-92
2023/08/13 05:29:27;;;;;;;;;;;;;;;;;;5319852;22;94535;-92
2023/08/13 05:32:11;;;;;;;;;;;;;;;;;;5431428;22;94473;-92
2023/08/13 05:46:16;;;;;;;;;;;;;;;;;;4961540;28;94869;-93
2023/08/13 05:51:57;;;;;;;;;;;;;;;;;;5175440;22;94210;-91
2023/08/13 05:54:54;;;;;;;;;;;;;;;;;;5020349;28;92810;-92
2023/08/13 05:57:39;;;;;;;;;;;;;;;;;;5225584;22;95068;-92
2023/08/13 06:11:33;;;;;;;;;;;;;;;;;;5170194;22;92607;-92
2023/08/13 06:14:19;;;;;;;;;;;;;;;;;;5510872;22;95405;-92
2023/08/13 06:20:00;;;;;;;;;;;;;;;;;;5232988;22;94171;-92
2023/08/13 06:22:57;;;;;;;;;;;;;;;;;;5200569;22;95036;-93
2023/08/13 06:54:36;;;;;;;;;;;;;;;;;;5094773;23;94278;-90
2023/08/13 06:57:13;;;;;;;;;;;;;;;;;;5328306;23;95270;-92
2023/08/13 07:14:22;;;;;;;;;;;;;;;;;;5563677;22;95018;-92
2023/08/13 07:17:10;;;;;;;;;;;;;;;;;;5166730;22;93731;-90
2023/08/13 07:22:35;;;;;;;;;;;;;;;;;;5414227;22;94558;-92
2023/08/13 07:28:08;;;;;;;;;;;;;;;;;;5020989;23;94081;-92
2023/08/13 07:30:41;;;;;;;;;;;;;;;;;;5226569;23;116147;-92
2023/08/13 07:33:29;;;;;;;;;;;;;;;;;;4928769;23;92172;-94
2023/08/13 07:36:10;;;;;;;;;;;;;;;;;;4944547;28;91303;-92
2023/08/13 07:38:37;;;;;;;;;;;;;;;;;;5346830;23;94843;-90
2023/08/13 07:46:54;;;;;;;;;;;;;;;;;;5061095;22;96180;-92
2023/08/13 07:49:21;;;;;;;;;;;;;;;;;;5008971;23;94818;-92
2023/08/13 07:52:00;;;;;;;;;;;;;;;;;;4933423;28;91554;-92
2023/08/13 07:54:28;;;;;;;;;;;;;;;;;;4942440;28;92278;-92
2023/08/13 07:57:11;;;;;;;;;;;;;;;;;;5164303;23;94847;-92
2023/08/13 07:59:50;;;;;;;;;;;;;;;;;;4931965;28;92279;-91
2023/08/13 08:02:34;;;;;;;;;;;;;;;;;;5288015;23;94670;-91
2023/08/13 08:05:12;;;;;;;;;;;;;;;;;;4896929;28;91396;-91
2023/08/13 08:10:43;;;;;;;;;;;;;;;;;;4914088;28;92999;-91
2023/08/13 08:13:14;;;;;;;;;;;;;;;;;;4898678;28;92148;-92
2023/08/13 08:15:44;;;;;;;;;;;;;;;;;;4886081;28;94151;-92
2023/08/13 08:18:22;;;;;;;;;;;;;;;;;;5150711;23;93118;-92
2023/08/13 08:26:13;;;;;;;;;;;;;;;;;;5165938;23;93700;-91
2023/08/13 13:30:15;;;;;;;;;;;;;;;;;;5725556;23;94332;-94
2023/08/13 13:35:18;;;;;;;;;;;;;;;;;;5813104;23;94489;-92
2023/08/13 13:38:21;;;;;;;;;;;;;;;;;;5941951;23;94585;-91
2023/08/13 17:18:18;;;;;;;;;;;;;;;;;;5982037;23;94883;31
